Time;durP1;ratioP1;P1;durP2;ratioP2;P2;SDS_P1;SDS_P2;PMS_P1;PMS_P2;Temp;Humidity;BMP_temperature;BMP_pressure;BME280_temperature;BME280_humidity;BME280_pressure;Samples;Min_cycle;Max_cycle;Signal;HPM_P1;HPM_P2
2023/03/06 00:00:35;;;;;;;4.53;4.00;;;22.20;50.90;;;;;;4966388;28;20596;-86
2023/03/06 00:03:03;;;;;;;2.73;2.53;;;22.20;50.90;;;;;;4976509;28;20461;-85
2023/03/06 00:05:31;;;;;;;4.33;3.33;;;22.20;50.90;;;;;;4991584;28;20461;-85
2023/03/06 00:08:00;;;;;;;3.43;3.00;;;22.20;50.90;;;;;;4990897;28;20556;-85
2023/03/06 00:10:30;;;;;;;3.50;3.20;;;22.10;51.00;;;;;;4991619;28;20437;-85
2023/03/06 00:13:02;;;;;;;3.57;3.37;;;22.10;51.00;;;;;;4990541;28;20452;-85
2023/03/06 00:15:30;;;;;;;3.40;3.10;;;22.10;51.00;;;;;;4991501;28;20524;-86
2023/03/06 00:17:58;;;;;;;3.47;3.10;;;22.10;51.10;;;;;;4980445;28;20502;-85
2023/03/06 00:20:27;;;;;;;2.90;2.70;;;22.10;51.10;;;;;;4972077;28;20531;-85
2023/03/06 00:22:56;;;;;;;3.37;3.17;;;22.10;51.10;;;;;;4974282;28;20527;-84
2023/03/06 00:25:24;;;;;;;3.80;3.50;;;22.00;51.10;;;;;;4991236;28;20539;-85
2023/03/06 00:27:52;;;;;;;3.67;3.37;;;22.10;51.10;;;;;;4991094;28;20573;-85
2023/03/06 00:30:24;;;;;;;4.00;3.70;;;22.10;51.20;;;;;;4973334;28;20536;-86
2023/03/06 00:32:53;;;;;;;3.20;3.00;;;22.10;51.20;;;;;;4986152;28;20908;-85
2023/03/06 00:35:23;;;;;;;4.00;2.80;;;22.10;51.20;;;;;;4973761;28;20465;-86
2023/03/06 00:37:51;;;;;;;3.60;3.30;;;22.10;51.10;;;;;;4972816;28;20499;-85
2023/03/06 00:40:21;;;;;;;3.57;3.27;;;22.10;51.10;;;;;;4990896;28;20457;-85
2023/03/06 00:42:49;;;;;;;2.97;2.77;;;22.10;51.10;;;;;;4990047;28;20452;-84
2023/03/06 00:45:19;;;;;;;3.33;3.13;;;22.10;51.10;;;;;;4969658;28;20473;-83
2023/03/06 00:47:49;;;;;;;4.10;3.37;;;22.20;51.00;;;;;;4971848;28;20440;-85
2023/03/06 00:50:17;;;;;;;3.20;3.00;;;22.20;51.00;;;;;;4954481;28;20464;-85
2023/03/06 00:52:46;;;;;;;3.20;3.00;;;22.20;51.00;;;;;;4983238;28;20539;-85
2023/03/06 00:55:14;;;;;;;3.00;2.80;;;22.20;50.90;;;;;;4990743;28;20476;-85
2023/03/06 00:57:42;;;;;;;3.53;3.33;;;22.20;50.90;;;;;;4990438;28;20527;-85
2023/03/06 01:00:12;;;;;;;3.60;3.30;;;22.20;50.90;;;;;;4979914;28;20553;-85
2023/03/06 01:02:41;;;;;;;3.93;3.63;;;22.30;50.90;;;;;;4957917;28;20478;-83
2023/03/06 01:05:13;;;;;;;3.03;2.73;;;22.30;50.80;;;;;;4973859;28;20508;-84
2023/03/06 01:07:41;;;;;;;3.10;2.73;;;22.20;50.80;;;;;;4991087;28;20932;-85
2023/03/06 01:10:11;;;;;;;3.40;3.20;;;22.20;50.80;;;;;;4987655;28;21043;-86
2023/03/06 01:12:39;;;;;;;3.30;3.00;;;22.20;50.80;;;;;;4988826;28;20539;-85
2023/03/06 01:15:08;;;;;;;3.70;3.40;;;22.20;50.80;;;;;;4988557;28;20454;-85
2023/03/06 01:17:36;;;;;;;3.10;2.87;;;22.20;50.90;;;;;;4981150;28;20579;-84
2023/03/06 01:20:06;;;;;;;2.90;2.70;;;22.20;50.80;;;;;;4990527;28;20448;-85
2023/03/06 01:22:35;;;;;;;3.27;2.97;;;22.20;50.90;;;;;;4990189;28;20464;-84
2023/03/06 01:25:04;;;;;;;2.73;2.53;;;22.20;50.90;;;;;;4969855;28;20473;-85
2023/03/06 01:27:32;;;;;;;2.83;2.57;;;22.20;50.90;;;;;;4970552;28;20983;-85
2023/03/06 01:30:00;;;;;;;3.70;3.40;;;22.10;50.90;;;;;;4985670;28;20466;-85
2023/03/06 01:32:29;;;;;;;3.40;3.10;;;22.10;50.90;;;;;;4976541;28;20501;-83
2023/03/06 01:34:58;;;;;;;3.73;3.43;;;22.10;50.90;;;;;;4991319;28;20869;-85
2023/03/06 01:37:26;;;;;;;3.20;3.00;;;22.10;50.90;;;;;;4990289;28;20503;-84
2023/03/06 01:39:55;;;;;;;3.00;2.80;;;22.10;50.90;;;;;;4980078;28;20472;-85
2023/03/06 01:42:24;;;;;;;3.00;2.80;;;22.10;50.90;;;;;;4989968;28;20523;-85
2023/03/06 01:45:00;;;;;;;4.93;3.10;;;22.10;51.00;;;;;;4990271;28;20795;-84
2023/03/06 01:47:28;;;;;;;2.93;2.73;;;22.00;51.00;;;;;;4990129;28;20439;-85
2023/03/06 01:50:00;;;;;;;2.70;2.50;;;22.10;51.00;;;;;;4972670;28;20492;-85
2023/03/06 01:52:32;;;;;;;3.83;3.43;;;22.10;51.00;;;;;;4975168;28;20488;-85
2023/03/06 01:55:05;;;;;;;2.57;2.40;;;22.00;51.00;;;;;;4977207;28;20479;-85
2023/03/06 01:57:38;;;;;;;3.03;2.80;;;22.10;51.00;;;;;;4993485;28;20872;-85
2023/03/06 02:00:11;;;;;;;3.10;2.90;;;22.10;51.00;;;;;;4976586;28;20492;-86
2023/03/06 02:02:47;;;;;;;2.93;2.47;;;22.10;51.00;;;;;;4973201;28;20467;-83
2023/03/06 02:05:16;;;;;;;3.30;3.10;;;22.10;51.00;;;;;;4993980;28;20456;-85
2023/03/06 02:07:45;;;;;;;2.97;2.60;;;22.10;51.00;;;;;;4992345;28;20522;-84
2023/03/06 02:10:16;;;;;;;6.00;2.70;;;22.10;51.00;;;;;;4971100;28;20473;-84
2023/03/06 02:12:46;;;;;;;2.80;2.60;;;22.10;50.90;;;;;;4973632;28;20543;-83
2023/03/06 02:15:17;;;;;;;2.73;2.53;;;22.10;50.90;;;;;;4971940;28;20464;-85
2023/03/06 02:17:47;;;;;;;3.20;2.97;;;22.10;50.90;;;;;;4996249;28;20487;-83
2023/03/06 02:20:22;;;;;;;3.20;2.90;;;22.20;50.90;;;;;;4995560;28;20468;-84
2023/03/06 02:22:56;;;;;;;2.90;2.70;;;22.20;50.90;;;;;;4975077;28;20501;-84
2023/03/06 02:25:32;;;;;;;3.10;2.90;;;22.20;50.90;;;;;;4995194;28;20441;-84
2023/03/06 02:28:02;;;;;;;3.97;2.77;;;22.20;50.90;;;;;;4975202;28;21037;-85
2023/03/06 02:30:31;;;;;;;4.03;3.73;;;22.20;50.90;;;;;;4975507;28;20540;-84
2023/03/06 02:33:00;;;;;;;3.27;2.97;;;22.20;50.90;;;;;;4975395;28;20501;-85
2023/03/06 02:35:30;;;;;;;2.77;2.57;;;22.20;50.90;;;;;;4993059;28;20949;-85
2023/03/06 02:38:02;;;;;;;3.50;3.20;;;22.10;50.90;;;;;;4971781;28;20564;-85
2023/03/06 02:40:32;;;;;;;2.67;2.47;;;22.10;50.90;;;;;;4956586;28;20462;-85
2023/03/06 02:43:01;;;;;;;2.60;2.13;;;22.10;50.90;;;;;;4969081;28;20475;-85
2023/03/06 02:45:34;;;;;;;3.00;2.47;;;22.10;50.90;;;;;;4975626;28;20849;-85
2023/03/06 02:48:02;;;;;;;3.00;2.77;;;22.10;50.90;;;;;;4993008;28;20439;-85
2023/03/06 02:50:32;;;;;;;3.30;3.10;;;22.10;50.90;;;;;;4994290;28;20438;-85
2023/03/06 02:53:01;;;;;;;2.60;2.40;;;22.10;50.90;;;;;;4973990;28;20454;-85
2023/03/06 02:55:32;;;;;;;2.90;2.70;;;22.10;50.90;;;;;;4990740;28;20476;-85
2023/03/06 02:58:02;;;;;;;3.57;3.30;;;22.10;51.00;;;;;;4974486;28;20481;-85
2023/03/06 03:00:31;;;;;;;3.13;2.83;;;22.10;51.00;;;;;;4974575;28;20460;-83
2023/03/06 03:03:02;;;;;;;3.57;3.27;;;22.10;51.00;;;;;;4962977;28;20547;-84
2023/03/06 03:05:31;;;;;;;3.37;2.70;;;22.00;51.00;;;;;;4974111;28;20449;-84
2023/03/06 03:08:07;;;;;;;3.00;2.67;;;22.00;51.00;;;;;;4957307;28;20472;-85
2023/03/06 03:10:37;;;;;;;3.27;2.97;;;22.00;51.00;;;;;;4970894;28;20590;-84
2023/03/06 03:13:05;;;;;;;2.77;2.57;;;22.00;51.00;;;;;;4992133;28;20545;-83
2023/03/06 03:15:34;;;;;;;2.97;2.77;;;22.00;51.00;;;;;;4975143;28;20458;-84
2023/03/06 03:18:03;;;;;;;2.87;2.60;;;22.00;51.00;;;;;;4975160;28;20464;-85
2023/03/06 03:20:31;;;;;;;2.50;2.30;;;22.00;51.00;;;;;;4975638;28;20906;-84
2023/03/06 03:23:00;;;;;;;2.87;2.57;;;22.00;51.00;;;;;;4991969;28;20826;-85
2023/03/06 03:25:28;;;;;;;2.77;2.53;;;22.00;51.00;;;;;;4959323;28;20465;-84
2023/03/06 03:27:59;;;;;;;3.00;2.70;;;22.00;51.00;;;;;;4955227;28;20525;-84
2023/03/06 03:30:27;;;;;;;2.90;2.60;;;22.00;51.00;;;;;;4973105;28;20464;-84
2023/03/06 03:32:55;;;;;;;2.40;2.20;;;22.00;51.00;;;;;;4975070;28;20458;-85
2023/03/06 03:35:24;;;;;;;3.50;3.20;;;22.00;51.00;;;;;;4975622;28;20497;-85
2023/03/06 03:37:54;;;;;;;3.50;3.20;;;22.00;51.00;;;;;;4960648;28;20548;-84
2023/03/06 03:40:22;;;;;;;2.60;2.40;;;22.00;51.00;;;;;;4957862;28;20462;-84
2023/03/06 03:42:51;;;;;;;3.13;2.93;;;22.00;51.00;;;;;;4958292;28;20463;-82
2023/03/06 03:45:21;;;;;;;2.87;2.67;;;22.00;51.00;;;;;;4974917;28;20472;-85
2023/03/06 03:47:50;;;;;;;2.77;2.57;;;22.10;51.00;;;;;;4992392;28;20536;-84
2023/03/06 03:50:18;;;;;;;3.07;2.87;;;22.10;51.00;;;;;;4956251;28;20461;-85
2023/03/06 03:52:47;;;;;;;2.50;2.30;;;22.10;51.00;;;;;;4975108;28;20556;-84
2023/03/06 03:55:15;;;;;;;3.07;2.80;;;22.10;51.00;;;;;;4964517;28;20472;-84
2023/03/06 03:57:43;;;;;;;3.00;2.80;;;22.10;51.00;;;;;;4970143;28;20476;-84
2023/03/06 04:00:15;;;;;;;3.00;2.80;;;22.10;51.00;;;;;;4972509;28;20476;-84
2023/03/06 04:02:54;;;;;;;2.93;2.63;;;22.10;51.00;;;;;;4973492;28;21042;-84
2023/03/06 04:05:29;;;;;;;2.70;2.50;;;22.10;51.00;;;;;;4972221;28;20440;-85
2023/03/06 04:07:58;;;;;;;2.30;2.00;;;22.10;51.00;;;;;;4962273;28;20473;-84
2023/03/06 04:10:26;;;;;;;3.17;2.97;;;22.10;51.00;;;;;;4985816;28;20462;-84
2023/03/06 04:12:54;;;;;;;2.83;2.70;;;22.10;51.00;;;;;;4970665;28;20461;-85
2023/03/06 04:15:22;;;;;;;2.60;2.40;;;22.10;51.00;;;;;;4973820;28;20463;-85
2023/03/06 04:17:51;;;;;;;3.03;2.83;;;22.10;51.00;;;;;;4992295;28;20458;-84
2023/03/06 04:20:24;;;;;;;3.00;2.77;;;22.00;51.00;;;;;;4970850;28;20984;-85
2023/03/06 04:22:53;;;;;;;2.90;2.70;;;22.00;51.00;;;;;;4973687;28;20886;-85
2023/03/06 04:25:22;;;;;;;3.20;3.00;;;22.00;51.00;;;;;;4969013;28;20566;-83
2023/03/06 04:27:51;;;;;;;2.93;2.73;;;22.00;51.00;;;;;;4983834;28;20492;-83
2023/03/06 04:30:19;;;;;;;4.17;3.33;;;22.00;51.00;;;;;;4971064;28;20568;-85
2023/03/06 04:32:47;;;;;;;3.10;2.80;;;22.00;51.00;;;;;;4974064;28;20509;-85
2023/03/06 04:35:16;;;;;;;2.73;2.53;;;22.00;51.00;;;;;;4991418;28;20460;-85
2023/03/06 04:37:55;;;;;;;2.90;2.70;;;22.00;51.00;;;;;;4973771;28;20566;-85
2023/03/06 04:40:27;;;;;;;2.73;2.53;;;22.00;51.00;;;;;;4974029;28;20580;-84
2023/03/06 04:42:56;;;;;;;3.07;2.83;;;22.00;51.00;;;;;;4986670;28;21821;-84
2023/03/06 04:45:25;;;;;;;2.97;2.70;;;22.00;51.00;;;;;;4971617;28;20449;-84
2023/03/06 04:47:53;;;;;;;2.80;2.60;;;22.00;51.00;;;;;;4983634;28;20457;-85
2023/03/06 04:50:23;;;;;;;3.30;3.07;;;22.00;51.00;;;;;;4991553;28;20526;-84
2023/03/06 04:52:51;;;;;;;3.10;2.90;;;22.00;51.00;;;;;;4974084;28;20447;-85
2023/03/06 04:55:21;;;;;;;3.23;2.93;;;22.00;51.00;;;;;;4971976;28;20445;-84
2023/03/06 04:57:49;;;;;;;3.10;2.90;;;22.00;51.00;;;;;;4980361;28;20559;-85
2023/03/06 05:00:20;;;;;;;2.90;2.70;;;22.00;51.00;;;;;;4988980;28;20474;-85
2023/03/06 05:02:49;;;;;;;2.70;2.50;;;22.00;51.00;;;;;;4986975;28;20496;-85
2023/03/06 05:05:18;;;;;;;2.80;2.60;;;22.00;51.00;;;;;;4981670;28;20497;-85
2023/03/06 05:07:46;;;;;;;2.60;2.50;;;22.00;51.00;;;;;;4984125;28;20466;-85
2023/03/06 05:10:17;;;;;;;3.03;2.80;;;22.00;51.00;;;;;;4979886;28;20550;-83
2023/03/06 05:12:47;;;;;;;3.40;3.10;;;22.00;51.00;;;;;;4981793;28;20448;-84
2023/03/06 05:15:15;;;;;;;2.87;2.67;;;22.00;51.00;;;;;;4971834;28;20448;-83
2023/03/06 05:17:43;;;;;;;3.40;3.10;;;22.00;51.00;;;;;;4958557;28;20543;-84
2023/03/06 05:20:13;;;;;;;3.20;2.90;;;22.00;51.00;;;;;;4981926;28;20477;-83
2023/03/06 05:22:42;;;;;;;2.90;2.70;;;22.00;51.00;;;;;;4989520;28;20616;-82
2023/03/06 05:25:10;;;;;;;3.50;3.30;;;22.00;51.00;;;;;;4979911;28;20484;-84
2023/03/06 05:27:39;;;;;;;3.20;3.00;;;22.00;51.00;;;;;;4989187;28;20485;-85
2023/03/06 05:30:12;;;;;;;3.23;2.63;;;22.00;51.00;;;;;;4986726;28;20562;-82
2023/03/06 05:32:41;;;;;;;2.60;2.40;;;22.00;51.00;;;;;;4987611;28;20967;-84
2023/03/06 05:35:17;;;;;;;2.90;2.70;;;22.00;51.00;;;;;;4966759;28;20461;-84
2023/03/06 05:37:46;;;;;;;4.13;3.83;;;22.00;51.10;;;;;;4979133;28;20453;-84
2023/03/06 05:40:15;;;;;;;3.33;3.13;;;22.00;51.00;;;;;;4976010;28;20472;-85
2023/03/06 05:42:44;;;;;;;2.60;2.40;;;22.00;51.00;;;;;;4986275;28;21027;-84
2023/03/06 05:45:13;;;;;;;2.80;2.60;;;22.00;51.00;;;;;;4977485;28;20479;-84
2023/03/06 05:47:41;;;;;;;3.10;2.90;;;22.00;51.10;;;;;;4979332;28;20459;-83
2023/03/06 05:50:12;;;;;;;3.37;3.17;;;22.00;51.10;;;;;;4990930;28;20982;-84
2023/03/06 05:52:41;;;;;;;3.20;2.93;;;22.00;51.10;;;;;;4983324;28;20544;-83
2023/03/06 05:55:11;;;;;;;3.10;2.90;;;22.00;51.10;;;;;;4987176;28;21632;-84
2023/03/06 05:57:39;;;;;;;3.27;2.97;;;22.00;51.10;;;;;;4970021;28;20469;-83
2023/03/06 06:00:09;;;;;;;2.30;2.20;;;22.00;51.10;;;;;;4970653;28;21047;-83
2023/03/06 06:02:42;;;;;;;3.10;2.90;;;22.00;51.20;;;;;;4976071;28;20473;-85
2023/03/06 06:05:11;;;;;;;3.60;3.03;;;22.10;51.20;;;;;;4981843;28;20461;-87
2023/03/06 06:07:40;;;;;;;2.97;2.77;;;22.00;51.30;;;;;;4986204;28;20468;-86
2023/03/06 06:10:10;;;;;;;3.30;3.00;;;22.10;51.40;;;;;;4981262;28;20510;-89
2023/03/06 06:12:40;;;;;;;2.90;2.53;;;22.00;51.40;;;;;;4965215;28;21150;-86
2023/03/06 06:15:08;;;;;;;3.53;3.23;;;22.00;51.50;;;;;;4985844;28;20544;-86
2023/03/06 06:17:36;;;;;;;3.47;3.20;;;22.00;51.60;;;;;;4983443;28;20454;-85
2023/03/06 06:20:07;;;;;;;5.53;2.80;;;22.00;51.60;;;;;;4975223;28;20603;-85
2023/03/06 06:22:37;;;;;;;3.50;2.93;;;22.00;51.70;;;;;;4977066;28;20547;-83
2023/03/06 06:25:06;;;;;;;3.47;3.17;;;22.00;51.80;;;;;;4981305;28;20464;-88
2023/03/06 06:27:34;;;;;;;5.20;3.30;;;22.00;51.90;;;;;;4981950;28;21029;-85
2023/03/06 06:30:03;;;;;;;3.67;3.37;;;22.00;52.30;;;;;;4964932;28;20462;-88
2023/03/06 06:32:31;;;;;;;4.13;3.70;;;22.00;52.50;;;;;;4976310;28;20557;-85
2023/03/06 06:34:59;;;;;;;3.67;3.37;;;22.00;52.70;;;;;;4977404;28;20501;-86
2023/03/06 06:37:29;;;;;;;3.97;3.00;;;22.00;52.80;;;;;;4983873;28;21020;-87
2023/03/06 06:39:57;;;;;;;3.40;3.10;;;22.00;52.90;;;;;;4987457;28;20490;-85
2023/03/06 06:42:25;;;;;;;4.00;3.27;;;21.90;53.00;;;;;;4987878;28;20488;-85
2023/03/06 06:45:04;;;;;;;4.10;3.77;;;21.90;53.10;;;;;;4983170;28;20463;-87
2023/03/06 06:47:32;;;;;;;3.67;3.23;;;21.90;53.10;;;;;;4986567;28;20552;-86
2023/03/06 06:50:01;;;;;;;4.70;3.63;;;21.90;53.20;;;;;;4995725;28;20448;-87
2023/03/06 06:52:30;;;;;;;4.87;3.90;;;21.90;53.30;;;;;;4992140;28;20564;-87
2023/03/06 06:55:00;;;;;;;4.63;3.30;;;21.90;53.30;;;;;;4992070;28;20460;-85
2023/03/06 06:57:28;;;;;;;4.63;4.23;;;21.90;53.30;;;;;;4982564;28;20507;-86
2023/03/06 06:59:56;;;;;;;4.07;3.70;;;21.90;53.30;;;;;;4983364;28;20994;-83
2023/03/06 07:02:24;;;;;;;4.33;3.90;;;21.90;53.20;;;;;;4987591;28;20476;-83
2023/03/06 07:04:52;;;;;;;8.50;4.10;;;22.00;53.20;;;;;;4993775;28;20536;-83
2023/03/06 07:07:35;;;;;;;4.80;3.27;;;22.00;53.30;;;;;;4978051;28;20469;-83
2023/03/06 07:10:05;;;;;;;6.07;3.77;;;22.00;53.40;;;;;;4973098;28;20508;-83
2023/03/06 07:12:33;;;;;;;4.73;3.77;;;22.10;53.30;;;;;;4974775;28;20457;-83
2023/03/06 07:15:03;;;;;;;3.77;3.23;;;22.10;53.30;;;;;;4983074;28;20460;-83
2023/03/06 07:17:31;;;;;;;3.83;3.30;;;22.20;53.30;;;;;;4973970;28;20477;-83
2023/03/06 07:19:59;;;;;;;7.03;3.33;;;22.20;53.30;;;;;;4973911;28;20506;-84
2023/03/06 07:22:27;;;;;;;4.63;3.60;;;22.20;53.30;;;;;;4974271;28;20588;-83
2023/03/06 07:25:05;;;;;;;6.73;4.20;;;22.20;53.40;;;;;;4976036;28;20476;-83
2023/03/06 07:27:33;;;;;;;8.80;3.50;;;22.20;53.50;;;;;;4972991;28;21028;-83
2023/03/06 07:30:01;;;;;;;4.20;3.60;;;22.20;53.60;;;;;;4977738;28;20969;-83
2023/03/06 07:32:30;;;;;;;5.93;3.87;;;22.20;53.50;;;;;;4972576;28;20500;-84
2023/03/06 07:34:58;;;;;;;4.87;3.50;;;22.20;53.60;;;;;;4975334;28;20512;-84
2023/03/06 07:37:46;;;;;;;5.33;3.30;;;22.20;53.60;;;;;;4972924;28;20968;-84
2023/03/06 07:40:15;;;;;;;3.30;2.80;;;22.20;53.60;;;;;;4972351;28;20473;-82
2023/03/06 07:42:43;;;;;;;9.73;4.60;;;22.10;53.60;;;;;;4980686;28;20472;-84
2023/03/06 07:45:16;;;;;;;3.20;2.90;;;22.10;53.80;;;;;;4968735;28;20470;-80
2023/03/06 07:47:44;;;;;;;8.10;4.03;;;22.10;53.90;;;;;;4986439;28;20456;-80
2023/03/06 07:50:12;;;;;;;5.40;3.27;;;22.10;54.00;;;;;;4991601;28;20997;-80
2023/03/06 07:52:40;;;;;;;3.60;3.13;;;22.10;54.10;;;;;;4991302;28;20469;-80
2023/03/06 07:55:10;;;;;;;3.53;3.23;;;22.20;54.10;;;;;;4989745;28;20453;-80
2023/03/06 07:57:39;;;;;;;3.43;3.10;;;22.20;54.20;;;;;;4986668;28;20465;-81
2023/03/06 08:00:11;;;;;;;4.17;3.70;;;22.20;54.10;;;;;;4989854;28;20483;-82
2023/03/06 08:02:43;;;;;;;6.73;3.23;;;22.20;54.10;;;;;;4986625;28;20841;-82
2023/03/06 08:05:15;;;;;;;4.13;3.53;;;22.20;54.10;;;;;;4986111;28;20983;-81
2023/03/06 08:07:44;;;;;;;3.93;3.57;;;22.20;54.10;;;;;;4990611;28;20464;-81
2023/03/06 08:10:14;;;;;;;4.23;3.83;;;22.30;54.00;;;;;;4986860;28;20974;-80
2023/03/06 08:12:44;;;;;;;3.03;2.83;;;22.30;54.00;;;;;;4975286;28;20465;-81
2023/03/06 08:15:13;;;;;;;3.90;3.50;;;22.30;54.00;;;;;;4971997;28;20492;-81
2023/03/06 08:17:41;;;;;;;3.50;2.90;;;22.30;54.00;;;;;;4990592;28;20485;-81
2023/03/06 08:20:11;;;;;;;5.77;4.40;;;22.30;54.00;;;;;;4991114;28;20462;-81
2023/03/06 08:22:39;;;;;;;6.50;3.60;;;22.30;54.00;;;;;;4988307;28;20483;-81
2023/03/06 08:25:09;;;;;;;4.57;2.60;;;22.40;54.00;;;;;;4981519;28;20500;-86
2023/03/06 08:27:37;;;;;;;6.13;3.27;;;22.40;53.90;;;;;;4989668;28;20523;-85
2023/03/06 08:30:09;;;;;;;3.93;3.07;;;22.40;53.90;;;;;;4990204;28;20457;-85
2023/03/06 08:32:37;;;;;;;4.37;3.67;;;22.50;53.80;;;;;;4985977;28;20552;-86
2023/03/06 08:35:06;;;;;;;4.03;3.63;;;22.50;53.70;;;;;;4982300;28;20448;-85
2023/03/06 08:37:35;;;;;;;3.63;2.73;;;22.50;53.60;;;;;;4979542;28;20480;-83
2023/03/06 08:40:04;;;;;;;4.23;3.83;;;22.50;53.60;;;;;;4990377;28;20465;-85
2023/03/06 08:42:32;;;;;;;3.40;2.97;;;22.50;53.60;;;;;;4985186;28;20481;-83
2023/03/06 08:45:00;;;;;;;6.00;3.00;;;22.60;53.50;;;;;;4979195;28;20464;-83
2023/03/06 08:47:30;;;;;;;4.73;3.20;;;22.60;53.50;;;;;;4989356;28;20460;-84
2023/03/06 08:49:58;;;;;;;3.30;3.00;;;22.60;53.50;;;;;;4989889;28;20548;-84
2023/03/06 08:52:28;;;;;;;3.27;2.97;;;22.60;53.50;;;;;;4989198;28;20472;-84
2023/03/06 08:54:56;;;;;;;3.77;3.47;;;22.60;53.50;;;;;;4985147;28;20465;-82
2023/03/06 08:57:25;;;;;;;3.40;3.03;;;22.60;53.40;;;;;;4988449;28;20457;-81
2023/03/06 08:59:53;;;;;;;3.40;3.10;;;22.60;53.30;;;;;;4988294;28;20552;-81
2023/03/06 09:02:21;;;;;;;3.73;3.20;;;22.60;53.20;;;;;;4986721;28;20488;-81
2023/03/06 09:04:50;;;;;;;3.67;3.37;;;22.60;53.20;;;;;;4988726;28;20552;-81
2023/03/06 09:07:19;;;;;;;4.37;3.13;;;22.60;53.30;;;;;;4990102;28;21151;-81
2023/03/06 09:09:47;;;;;;;3.40;3.10;;;22.60;53.30;;;;;;4986920;28;20866;-84
2023/03/06 09:12:15;;;;;;;4.60;3.47;;;22.60;53.30;;;;;;4975675;28;20868;-86
2023/03/06 09:14:43;;;;;;;3.47;3.17;;;22.70;53.30;;;;;;4986307;28;20468;-85
2023/03/06 09:17:11;;;;;;;5.97;3.40;;;22.70;53.40;;;;;;4987903;28;20866;-88
2023/03/06 09:19:39;;;;;;;3.20;2.90;;;22.70;53.40;;;;;;4989394;28;20553;-88
2023/03/06 09:22:09;;;;;;;3.60;3.03;;;22.70;53.40;;;;;;4985970;28;20488;-81
2023/03/06 09:24:37;;;;;;;3.10;2.80;;;22.70;53.40;;;;;;4989114;28;20466;-82
2023/03/06 09:27:05;;;;;;;6.03;3.00;;;22.70;53.40;;;;;;4967815;28;21340;-82
2023/03/06 09:29:34;;;;;;;3.20;2.90;;;22.70;53.60;;;;;;4989871;28;20515;-81
2023/03/06 09:32:02;;;;;;;3.30;2.97;;;22.70;53.50;;;;;;4985134;28;20471;-83
2023/03/06 09:34:30;;;;;;;3.77;3.47;;;22.70;53.60;;;;;;4980273;28;20477;-84
2023/03/06 09:36:58;;;;;;;3.00;2.80;;;22.70;53.50;;;;;;4989688;28;20488;-83
2023/03/06 09:39:28;;;;;;;4.43;2.97;;;22.70;53.50;;;;;;4988437;28;20458;-83
2023/03/06 09:41:57;;;;;;;2.90;2.63;;;22.70;53.50;;;;;;4987988;28;20520;-87
2023/03/06 09:44:27;;;;;;;3.93;3.10;;;22.70;53.50;;;;;;4980439;28;20489;-81
2023/03/06 09:47:24;;;;;;;3.43;2.80;;;22.70;53.50;;;;;;4971575;28;20493;-83
2023/03/06 09:50:11;;;;;;;3.10;2.90;;;22.70;53.50;;;;;;4988947;28;20555;-84
2023/03/06 09:52:46;;;;;;;3.30;2.60;;;22.70;53.50;;;;;;4983690;28;20516;-81
2023/03/06 09:55:19;;;;;;;3.40;3.10;;;22.70;53.50;;;;;;4989678;28;20460;-82
2023/03/06 09:57:54;;;;;;;2.60;2.40;;;22.70;53.50;;;;;;4988261;28;20466;-83
2023/03/06 10:00:28;;;;;;;3.33;3.03;;;22.70;53.40;;;;;;4987969;28;20464;-82
2023/03/06 10:03:07;;;;;;;3.33;3.03;;;22.70;53.40;;;;;;4981824;28;20474;-82
2023/03/06 10:05:40;;;;;;;4.47;2.60;;;22.70;53.30;;;;;;4989021;28;20468;-84
2023/03/06 10:08:20;;;;;;;3.30;3.00;;;22.80;53.30;;;;;;4987140;28;20553;-86
2023/03/06 10:10:56;;;;;;;2.47;2.27;;;22.80;53.20;;;;;;4990263;28;20544;-84
2023/03/06 10:13:28;;;;;;;3.10;2.90;;;22.80;53.20;;;;;;4991207;28;20459;-84
2023/03/06 10:16:04;;;;;;;2.80;2.60;;;22.80;53.10;;;;;;4984768;28;20481;-85
2023/03/06 10:18:37;;;;;;;3.43;2.80;;;22.80;53.10;;;;;;4991808;28;20472;-86
2023/03/06 10:21:17;;;;;;;2.73;2.53;;;22.80;53.10;;;;;;4988638;28;20461;-84
2023/03/06 10:23:52;;;;;;;3.27;2.60;;;22.80;53.00;;;;;;4991803;28;20515;-84
2023/03/06 10:26:24;;;;;;;3.17;2.90;;;22.80;53.00;;;;;;4989489;28;20464;-82
2023/03/06 10:29:06;;;;;;;2.90;2.57;;;22.80;53.00;;;;;;4991330;28;20477;-83
2023/03/06 10:31:35;;;;;;;3.07;2.87;;;22.80;53.10;;;;;;4983183;28;20961;-81
2023/03/06 10:34:17;;;;;;;2.80;2.60;;;22.80;53.00;;;;;;4978572;28;20550;-85
2023/03/06 10:36:45;;;;;;;5.40;3.50;;;22.90;53.10;;;;;;4992350;28;20456;-81
2023/03/06 10:39:16;;;;;;;2.97;2.60;;;22.90;53.00;;;;;;4992186;28;20460;-82
2023/03/06 10:41:47;;;;;;;2.60;2.50;;;22.90;53.00;;;;;;4991043;28;20951;-81
2023/03/06 10:44:23;;;;;;;4.00;3.03;;;22.90;52.90;;;;;;4991436;28;25967;-82
2023/03/06 10:46:55;;;;;;;3.53;2.40;;;22.90;53.00;;;;;;4991019;28;20560;-81
2023/03/06 10:49:29;;;;;;;3.23;2.80;;;22.90;53.00;;;;;;4985532;28;20462;-83
2023/03/06 10:52:01;;;;;;;2.80;2.57;;;22.90;52.90;;;;;;4991770;28;20455;-82
2023/03/06 10:54:31;;;;;;;3.03;2.17;;;22.90;52.90;;;;;;4990960;28;20461;-81
2023/03/06 10:57:18;;;;;;;3.20;2.30;;;22.90;52.90;;;;;;4991068;28;20468;-80
2023/03/06 10:59:54;;;;;;;4.27;2.97;;;22.90;53.00;;;;;;4991004;28;20863;-81
2023/03/06 11:02:28;;;;;;;2.50;2.30;;;22.90;52.90;;;;;;4990848;28;20512;-86
2023/03/06 11:04:58;;;;;;;3.30;2.90;;;22.90;52.90;;;;;;4978550;28;20480;-86
2023/03/06 11:07:28;;;;;;;2.90;2.70;;;22.90;52.90;;;;;;4986610;28;20544;-85
2023/03/06 11:10:16;;;;;;;3.13;2.87;;;22.90;52.90;;;;;;4991331;28;20462;-87
2023/03/06 11:12:57;;;;;;;2.43;2.23;;;22.90;52.80;;;;;;4989555;28;20469;-84
2023/03/06 11:15:26;;;;;;;2.60;2.40;;;22.90;52.80;;;;;;4992445;28;20456;-84
2023/03/06 11:17:58;;;;;;;2.70;2.50;;;22.90;52.70;;;;;;4992452;28;20454;-85
2023/03/06 11:20:28;;;;;;;2.67;2.50;;;22.90;52.80;;;;;;4993291;28;20446;-82
2023/03/06 11:23:19;;;;;;;2.57;2.37;;;22.90;52.80;;;;;;4989635;28;20478;-79
2023/03/06 11:25:53;;;;;;;2.17;2.07;;;22.90;52.70;;;;;;4991907;28;20533;-80
2023/03/06 11:28:28;;;;;;;2.87;2.67;;;22.90;52.80;;;;;;4991076;28;20491;-81
2023/03/06 11:31:01;;;;;;;2.23;2.07;;;22.90;52.80;;;;;;4991378;28;20461;-85
2023/03/06 11:33:35;;;;;;;3.37;2.63;;;22.90;52.80;;;;;;4992640;28;20468;-85
2023/03/06 11:36:12;;;;;;;2.30;2.10;;;22.90;52.70;;;;;;4968811;28;20845;-88
2023/03/06 11:38:47;;;;;;;4.00;2.50;;;22.90;52.60;;;;;;4988056;28;20452;-86
2023/03/06 11:41:23;;;;;;;2.90;2.70;;;22.90;52.60;;;;;;4987530;28;20497;-83
2023/03/06 11:44:03;;;;;;;2.33;2.17;;;22.90;52.60;;;;;;4985048;28;20483;-84
2023/03/06 11:46:37;;;;;;;2.27;2.17;;;22.90;52.50;;;;;;4989711;28;20480;-81
2023/03/06 11:49:16;;;;;;;2.50;2.10;;;22.90;52.60;;;;;;4990727;28;20466;-81
2023/03/06 11:51:51;;;;;;;10.13;2.20;;;22.90;52.40;;;;;;4990506;28;20620;-80
2023/03/06 11:54:19;;;;;;;2.20;2.03;;;22.90;52.40;;;;;;4990980;28;20465;-81
2023/03/06 11:56:53;;;;;;;2.87;2.67;;;22.90;52.50;;;;;;4990903;28;20450;-81
2023/03/06 11:59:42;;;;;;;2.53;2.33;;;22.90;52.40;;;;;;4989220;28;20466;-84
2023/03/06 12:02:25;;;;;;;2.90;2.47;;;22.90;52.50;;;;;;4985502;28;20460;-81
2023/03/06 12:05:00;;;;;;;3.10;2.37;;;23.00;52.30;;;;;;4985293;28;20480;-82
2023/03/06 12:07:32;;;;;;;2.63;2.43;;;23.00;52.00;;;;;;4985191;28;20468;-82
2023/03/06 12:10:13;;;;;;;4.07;2.10;;;23.00;52.00;;;;;;4984997;28;20520;-82
2023/03/06 12:12:58;;;;;;;2.20;2.00;;;23.00;52.00;;;;;;4983098;28;20560;-83
2023/03/06 12:15:48;;;;;;;2.73;2.53;;;23.00;52.00;;;;;;4980508;28;20561;-83
2023/03/06 12:18:28;;;;;;;2.57;2.37;;;23.10;51.70;;;;;;4980876;28;20495;-81
2023/03/06 12:21:04;;;;;;;2.37;1.97;;;23.20;51.70;;;;;;4980191;28;20588;-83
2023/03/06 12:23:52;;;;;;;2.70;2.50;;;23.30;51.30;;;;;;4980768;28;20549;-84
2023/03/06 12:26:53;;;;;;;2.10;1.90;;;23.50;51.30;;;;;;4976877;28;21023;-80
2023/03/06 12:29:35;;;;;;;2.63;2.43;;;23.70;50.70;;;;;;4984143;28;20474;-81
2023/03/06 12:32:15;;;;;;;2.70;2.47;;;23.80;50.20;;;;;;4991725;28;20963;-82
2023/03/06 12:35:07;;;;;;;2.07;1.93;;;23.80;49.90;;;;;;4990033;28;20461;-81
2023/03/06 12:37:50;;;;;;;3.20;1.97;;;23.80;50.10;;;;;;4973264;28;20463;-81
2023/03/06 12:40:50;;;;;;;2.47;2.17;;;23.90;49.90;;;;;;4975564;28;20469;-81
2023/03/06 12:43:54;;;;;;;3.73;1.90;;;23.90;49.80;;;;;;4975931;28;20490;-81
2023/03/06 12:46:25;;;;;;;2.30;2.10;;;23.90;49.70;;;;;;4978138;28;20467;-81
2023/03/06 12:49:03;;;;;;;2.33;2.13;;;23.80;49.90;;;;;;4974973;28;20455;-81
2023/03/06 12:51:33;;;;;;;2.63;2.43;;;23.70;49.90;;;;;;4973590;28;20455;-82
2023/03/06 12:54:03;;;;;;;2.90;2.10;;;23.70;49.90;;;;;;4978702;28;20468;-82
2023/03/06 12:56:32;;;;;;;2.50;2.30;;;23.60;50.00;;;;;;4978242;28;20456;-81
2023/03/06 12:59:01;;;;;;;2.90;1.83;;;23.60;50.00;;;;;;4972772;28;20451;-84
2023/03/06 13:01:54;;;;;;;2.43;2.23;;;23.50;50.10;;;;;;4974664;28;20469;-80
2023/03/06 13:04:40;;;;;;;2.73;2.53;;;23.40;50.30;;;;;;4975729;28;20482;-80
2023/03/06 13:07:26;;;;;;;3.90;1.87;;;23.30;50.70;;;;;;4979607;28;20459;-80
2023/03/06 13:10:07;;;;;;;4.27;2.23;;;23.30;51.10;;;;;;4974453;28;20466;-81